メインページ
METAR-TAF:

METAR-TAF

空港 :

バマコ・セヌー国際空港

バマコ, マリ共和国

緯度: 12-32N, 経度: 007-57W, 海抜: 380m

現時点の気象観測

当レポートは25分前の22:30(UTC)に作成
西/北西の風 3kt
気温 22°C
湿度 88%
気圧 1017 hPa
視程10km以上
高度2000ftの雲はほとんどない
高度3300ftの雲はほとんどない, 積乱雲.
激しい雷雨

METAR: GABS 172230Z 30003KT 9999 TS FEW020 FEW033CB 22/20 Q1017 BECMG NSW

時間: 22:55 (22:55 UTC)

予報

当レポートは5時間55分前の17:00(UTC)に作成
予報は17日の 18時(UTC)から 18日の 24時(UTC)まで有効
南西の風 8kt
視程10km以上
高度2000ftの雲は散在している
17日の 18時(UTC)から 17日の 24時(UTC)まで一時的に
の風 15kt、最大35ktの突風を伴う
視程: 2500m
高度2000ftの雲は散在している
高度3000ftの雲は散在している, 積乱雲.
激しい雷雨, 雨
18日の 01時(UTC)から 18日の 05時(UTC)まで一時的に
変向風 15kt、最大35ktの突風を伴う
視程: 3000m
高度2000ftの千切れ雲あり
高度3000ftの雲は散在している, 積乱雲.
激しい雷雨, 雨
確率 40% :
18日の 07時(UTC)から 18日の 11時(UTC)まで一時的に
変向風 15kt、最大25ktの突風を伴う
視程: 4500m
高度2000ftの千切れ雲あり
高度3000ftの雲はほとんどない, 積乱雲.
にわか雨, 激しい雷雨

TAF: GABS 171700Z 1718/1824 23008KT 9999 SCT020 TEMPO 1718/1724 08015G35KT 2500 TSRA SCT020 SCT030CB TEMPO 1801/1805 VRB15G35KT 3000 TSRA BKN020 SCT030CB PROB40 TEMPO 1807/1811 VRB15G25KT 4500 SHRA TS BKN020 FEW030CB

4,000以上の空港の気象観測と天気予報(METAR報とTAF報)

利用可能な観測所は地図上に黄色い丸と赤い丸で示す。

丸の上にカーソルを重ねると観測所名を参照できる。

次にクリックすると気象観測と天気予報を参照できる。

マップの切り替え:黒色「×」印の緑ボタンをクリックして拡大、「-」印の緑ボタンをクリックして縮小、緑色の三角印をクリックして隣りの地図に切り替え


METAR-TAF: